AYNZ/LAE METAR and TAF weather

Enter ICAO airport designator
Station Type Date Time Source
AYNZ METAR 2018/01/19 09:00 UTC NOAA

AYNZ 190900Z 09011KT 9999 SCT040 BKN100 28/23 Q1006 RMK


Station Type Date Time Source
AYNZ Decoded METAR 2018/01/19 09:00 UTC NOAA

Station name not available
Jan 19, 2018 - 04:00 AM EST / 2018.01.19 0900 UTC
Wind: from the E (090 degrees) at 13 MPH (11 KT):0
Visibility: greater than 7 mile(s):0
Sky conditions: mostly cloudy
Temperature: 82 F (28 C)
Dew Point: 73 F (23 C)
Relative Humidity: 74%
Pressure (altimeter): 29.71 in. Hg (1006 hPa)
ob: AYNZ 190900Z 09011KT 9999 SCT040 BKN100 28/23 Q1006 RMK
cycle: 9

Station Type Date Time Source
AYNZ TAF 2015/08/19 08:15 UTC NOAA

TAF AYNZ 190550Z 1908/1920 09015KT 9999 SCT020 SCT120
FM191400 VRB03KT 9999 BKN040 Q 1011 1014 1013 1010


Example: see airport list